createdAt,value
2019-05-06T00:01:00.173Z,100704.14
2019-05-06T00:03:31.466Z,100702.75
2019-05-06T00:06:03.950Z,100702.27
2019-05-06T00:08:35.336Z,100701.41
2019-05-06T00:11:06.629Z,100694.04
2019-05-06T00:13:37.882Z,100695.78
2019-05-06T00:16:09.373Z,100691.03
2019-05-06T00:18:40.634Z,100692.30
2019-05-06T00:21:11.929Z,100694.08
2019-05-06T00:23:49.275Z,100689.30
2019-05-06T00:26:39.458Z,100687.59
2019-05-06T00:29:24.175Z,100696.77
2019-05-06T00:31:55.615Z,100692.50
2019-05-06T00:34:26.883Z,100689.50
2019-05-06T00:36:58.184Z,100693.93
2019-05-06T00:39:44.427Z,100692.66
2019-05-06T00:42:46.625Z,100694.05
2019-05-06T00:45:17.964Z,100689.73
2019-05-06T00:47:49.273Z,100693.19
2019-05-06T00:50:20.554Z,100693.66
2019-05-06T00:52:53.935Z,100690.21
2019-05-06T00:55:25.323Z,100692.47
2019-05-06T00:57:56.633Z,100692.50
2019-05-06T01:00:33.757Z,100693.45
2019-05-06T01:03:05.076Z,100695.70
2019-05-06T01:05:36.350Z,100700.12
2019-05-06T01:08:07.643Z,100694.98
2019-05-06T01:10:38.978Z,100692.02
2019-05-06T01:13:20.054Z,100690.70
2019-05-06T01:15:51.348Z,100698.61
2019-05-06T01:18:24.499Z,100697.38
2019-05-06T01:21:10.197Z,100693.56
2019-05-06T01:23:45.053Z,100700.16
2019-05-06T01:26:17.279Z,100703.64
2019-05-06T01:28:48.534Z,100699.29
2019-05-06T01:31:19.839Z,100704.98
2019-05-06T01:33:53.419Z,100696.72
2019-05-06T01:36:24.990Z,100705.86
2019-05-06T01:39:13.985Z,100700.59
2019-05-06T01:41:53.734Z,100701.40
2019-05-06T01:44:25.059Z,100700.92
2019-05-06T01:46:56.366Z,100703.03
2019-05-06T01:49:27.707Z,100702.56
2019-05-06T01:51:58.995Z,100705.14
2019-05-06T01:54:30.306Z,100704.27
2019-05-06T01:57:01.588Z,100702.92
2019-05-06T01:59:34.050Z,100703.69
2019-05-06T02:02:05.907Z,100698.06
2019-05-06T02:04:37.204Z,100694.11
2019-05-06T02:07:08.489Z,100697.23
2019-05-06T02:09:39.769Z,100694.98
2019-05-06T02:12:11.040Z,100702.86
2019-05-06T02:14:43.705Z,100701.98
2019-05-06T02:17:15.135Z,100699.91
2019-05-06T02:19:46.419Z,100696.47
2019-05-06T02:22:26.150Z,100699.98
2019-05-06T02:25:01.034Z,100704.81
2019-05-06T02:27:34.124Z,100703.14
2019-05-06T02:30:28.080Z,100702.30
2019-05-06T02:33:05.847Z,100704.91
2019-05-06T02:35:45.613Z,100704.14
2019-05-06T02:38:32.587Z,100703.27
2019-05-06T02:40:57.500Z,100699.83
2019-05-06T02:43:28.777Z,100706.28
2019-05-06T02:46:03.946Z,100701.67
2019-05-06T02:48:55.468Z,100706.48
2019-05-06T02:51:28.220Z,100703.48
2019-05-06T02:53:59.522Z,100702.20
2019-05-06T02:56:33.287Z,100700.56
2019-05-06T02:59:04.126Z,100704.51
2019-05-06T03:01:35.434Z,100698.05
2019-05-06T03:04:06.717Z,100699.35
2019-05-06T03:06:37.971Z,100701.62
2019-05-06T03:09:09.239Z,100704.29
2019-05-06T03:11:40.537Z,100698.23
2019-05-06T03:14:13.945Z,100697.42
2019-05-06T03:16:44.844Z,100693.17
2019-05-06T03:19:16.114Z,100695.75
2019-05-06T03:22:09.264Z,100696.30
2019-05-06T03:24:44.468Z,100692.47
2019-05-06T03:27:15.767Z,100685.58
2019-05-06T03:29:47.074Z,100689.08
2019-05-06T03:32:24.824Z,100681.66
2019-05-06T03:35:07.574Z,100683.89
2019-05-06T03:37:24.340Z,100683.00
2019-05-06T03:39:55.611Z,100680.83
2019-05-06T03:42:26.872Z,100679.92
2019-05-06T03:45:04.141Z,100679.95
2019-05-06T03:47:47.002Z,100679.14
2019-05-06T03:50:18.335Z,100676.45
2019-05-06T03:52:49.869Z,100676.80
2019-05-06T03:55:23.441Z,100673.72
2019-05-06T03:57:57.098Z,100679.00
2019-05-06T04:00:28.428Z,100680.73
2019-05-06T04:03:02.803Z,100675.52
2019-05-06T04:05:33.518Z,100676.42
2019-05-06T04:08:05.092Z,100680.24
2019-05-06T04:10:37.209Z,100682.41
2019-05-06T04:13:13.460Z,100684.53
2019-05-06T04:16:05.059Z,100680.13
2019-05-06T04:18:38.281Z,100680.44
2019-05-06T04:21:23.957Z,100689.16
2019-05-06T04:24:04.096Z,100688.20
2019-05-06T04:26:56.397Z,100688.58
2019-05-06T04:29:29.360Z,100690.72
2019-05-06T04:32:03.295Z,100694.10
2019-05-06T04:34:34.424Z,100691.30
2019-05-06T04:37:05.755Z,100691.30
2019-05-06T04:39:37.094Z,100689.55
2019-05-06T04:42:09.689Z,100688.69
2019-05-06T04:44:43.786Z,100684.64
2019-05-06T04:47:14.900Z,100690.73
2019-05-06T04:49:46.856Z,100688.98
2019-05-06T04:52:18.177Z,100695.88
2019-05-06T04:54:49.455Z,100698.99
2019-05-06T04:57:23.478Z,100698.42
2019-05-06T04:59:54.400Z,100700.59
2019-05-06T05:02:25.690Z,100697.05
2019-05-06T05:04:57.780Z,100696.72
2019-05-06T05:07:29.047Z,100695.05
2019-05-06T05:10:09.318Z,100702.98
2019-05-06T05:13:05.308Z,100704.98
2019-05-06T05:15:58.232Z,100701.91
2019-05-06T05:18:37.669Z,100699.19
2019-05-06T05:21:09.040Z,100704.84
2019-05-06T05:23:42.741Z,100699.15
2019-05-06T05:26:13.682Z,100699.98
2019-05-06T05:28:45.029Z,100700.28
2019-05-06T05:31:16.352Z,100701.69
2019-05-06T05:33:47.735Z,100702.96
2019-05-06T05:36:19.051Z,100706.44
2019-05-06T05:38:52.290Z,100709.27
2019-05-06T05:41:24.031Z,100706.52
2019-05-06T05:44:20.367Z,100704.77
2019-05-06T05:46:52.326Z,100717.44
2019-05-06T05:49:42.707Z,100719.61
2019-05-06T05:52:14.366Z,100719.14
2019-05-06T05:54:45.989Z,100723.02
2019-05-06T05:57:17.791Z,100727.41
2019-05-06T05:59:49.071Z,100724.65
2019-05-06T06:02:22.482Z,100724.65
2019-05-06T06:04:57.261Z,100724.25
2019-05-06T06:07:26.842Z,100722.24
2019-05-06T06:10:04.799Z,100715.67
2019-05-06T06:12:36.124Z,100716.11
2019-05-06T06:15:19.490Z,100715.98
2019-05-06T06:18:15.563Z,100716.85
2019-05-06T06:21:17.686Z,100722.00
2019-05-06T06:23:42.042Z,100714.04
2019-05-06T06:26:13.303Z,100718.71
2019-05-06T06:28:44.552Z,100714.96
2019-05-06T06:31:23.484Z,100725.20
2019-05-06T06:34:01.522Z,100721.77
2019-05-06T06:36:54.699Z,100715.48
2019-05-06T06:39:29.750Z,100715.94
2019-05-06T06:42:02.822Z,100716.19
2019-05-06T06:44:35.598Z,100712.91
2019-05-06T06:47:06.860Z,100714.78
2019-05-06T06:49:38.266Z,100712.41
2019-05-06T06:52:12.349Z,100716.00
2019-05-06T06:54:43.841Z,100712.55
2019-05-06T06:57:31.091Z,100713.92
2019-05-06T07:00:06.878Z,100708.42
2019-05-06T07:02:46.312Z,100711.59
2019-05-06T07:05:33.034Z,100713.97
2019-05-06T07:08:03.806Z,100715.30
2019-05-06T07:10:53.364Z,100711.50
2019-05-06T07:13:24.728Z,100712.09
2019-05-06T07:15:56.022Z,100720.56
2019-05-06T07:18:27.387Z,100724.97
2019-05-06T07:21:15.514Z,100715.16
2019-05-06T07:23:46.841Z,100715.31
2019-05-06T07:26:19.991Z,100725.16
2019-05-06T07:28:52.628Z,100718.47
2019-05-06T07:31:26.701Z,100715.28
2019-05-06T07:33:57.046Z,100719.30
2019-05-06T07:36:28.551Z,100714.80
2019-05-06T07:39:03.893Z,100717.81
2019-05-06T07:41:43.462Z,100711.00
2019-05-06T07:44:25.637Z,100709.56
2019-05-06T07:47:05.416Z,100713.40
2019-05-06T07:49:36.741Z,100713.70
2019-05-06T07:52:08.024Z,100713.78
2019-05-06T07:54:39.390Z,100710.66
2019-05-06T07:57:12.524Z,100708.86
2019-05-06T07:59:43.764Z,100710.99
2019-05-06T08:02:15.036Z,100709.00
2019-05-06T08:04:46.424Z,100714.44
2019-05-06T08:07:17.721Z,100707.50
2019-05-06T08:09:49.006Z,100702.63
2019-05-06T08:12:22.246Z,100705.61
2019-05-06T08:14:53.325Z,100708.47
2019-05-06T08:17:35.250Z,100702.77
2019-05-06T08:20:07.566Z,100706.03
2019-05-06T08:22:56.627Z,100708.61
2019-05-06T08:25:36.854Z,100707.63
2019-05-06T08:28:08.161Z,100706.86
2019-05-06T08:30:39.537Z,100712.36
2019-05-06T08:33:12.719Z,100699.05
2019-05-06T08:35:43.789Z,100701.56
2019-05-06T08:38:15.081Z,100695.46
2019-05-06T08:40:46.398Z,100697.65
2019-05-06T08:43:17.710Z,100692.95
2019-05-06T08:45:49.076Z,100694.34
2019-05-06T08:48:22.028Z,100694.83
2019-05-06T08:50:59.315Z,100692.78
2019-05-06T08:53:49.474Z,100697.14
2019-05-06T08:56:22.199Z,100685.77
2019-05-06T08:58:53.549Z,100694.30
2019-05-06T09:01:39.651Z,100693.54
2019-05-06T09:04:13.751Z,100679.58
2019-05-06T09:06:43.980Z,100680.73
2019-05-06T09:09:15.321Z,100677.44
2019-05-06T09:11:46.641Z,100668.08
2019-05-06T09:14:17.927Z,100679.25
2019-05-06T09:16:53.055Z,100674.08
2019-05-06T09:19:23.317Z,100681.75
2019-05-06T09:21:54.851Z,100678.39
2019-05-06T09:24:26.208Z,100667.33
2019-05-06T09:27:03.143Z,100663.30
2019-05-06T09:29:47.162Z,100673.33
2019-05-06T09:32:25.349Z,100669.69
2019-05-06T09:34:58.444Z,100668.42
2019-05-06T09:37:32.356Z,100675.51
2019-05-06T09:40:03.069Z,100666.69
2019-05-06T09:42:34.391Z,100674.06
2019-05-06T09:45:06.363Z,100674.20
2019-05-06T09:47:59.374Z,100679.16
2019-05-06T09:50:46.019Z,100682.62
2019-05-06T09:53:23.284Z,100682.34
2019-05-06T09:56:33.496Z,100668.44
2019-05-06T09:59:04.991Z,100672.02
2019-05-06T10:01:36.440Z,100666.98
2019-05-06T10:04:08.167Z,100659.25
2019-05-06T10:06:39.604Z,100668.89
2019-05-06T10:09:15.899Z,100663.10
2019-05-06T10:11:45.483Z,100661.72
2019-05-06T10:14:16.789Z,100659.00
2019-05-06T10:16:48.086Z,100668.11
2019-05-06T10:19:19.390Z,100671.83
2019-05-06T10:21:52.884Z,100670.30
2019-05-06T10:24:23.726Z,100671.30
2019-05-06T10:26:58.505Z,100672.81
2019-05-06T10:29:46.548Z,100663.96
2019-05-06T10:32:26.748Z,100667.70
2019-05-06T10:34:58.020Z,100665.09
2019-05-06T10:37:36.788Z,100665.66
2019-05-06T10:40:22.779Z,100661.92
2019-05-06T10:43:43.137Z,100663.30
2019-05-06T10:46:14.578Z,100659.08
2019-05-06T10:48:45.845Z,100655.86
2019-05-06T10:51:23.005Z,100653.67
2019-05-06T10:53:54.399Z,100652.09
2019-05-06T10:56:53.744Z,100658.87
2019-05-06T10:59:17.768Z,100648.93
2019-05-06T11:01:50.629Z,100641.95
2019-05-06T11:04:22.523Z,100644.97
2019-05-06T11:06:53.917Z,100644.59
2019-05-06T11:09:25.200Z,100648.59
2019-05-06T11:11:56.541Z,100647.88
2019-05-06T11:14:27.775Z,100656.23
2019-05-06T11:16:59.116Z,100648.07
2019-05-06T11:19:30.386Z,100652.47
2019-05-06T11:22:03.602Z,100653.17
2019-05-06T11:24:35.344Z,100643.52
2019-05-06T11:27:07.536Z,100652.86
2019-05-06T11:29:43.528Z,100647.48
2019-05-06T11:32:33.074Z,100646.87
2019-05-06T11:35:16.677Z,100637.89
2019-05-06T11:38:12.024Z,100639.08
2019-05-06T11:40:43.410Z,100643.42
2019-05-06T11:43:44.425Z,100642.73
2019-05-06T11:46:16.251Z,100650.06
2019-05-06T11:48:48.097Z,100636.05
2019-05-06T11:51:23.084Z,100638.69
2019-05-06T11:53:55.019Z,100643.17
2019-05-06T11:56:50.984Z,100660.09
2019-05-06T11:59:19.300Z,100668.00
2019-05-06T12:01:56.459Z,100677.95
2019-05-06T12:04:28.353Z,100659.39
2019-05-06T12:07:10.182Z,100667.04
2019-05-06T12:09:33.815Z,100663.54
2019-05-06T12:12:05.684Z,100657.37
2019-05-06T12:14:37.500Z,100658.83
2019-05-06T12:17:09.347Z,100655.67
2019-05-06T12:19:43.258Z,100646.44
2019-05-06T12:22:14.781Z,100643.55
2019-05-06T12:24:46.654Z,100646.16
2019-05-06T12:27:35.843Z,100647.98
2019-05-06T12:30:08.197Z,100646.51
2019-05-06T12:32:44.663Z,100642.91
2019-05-06T12:35:16.635Z,100645.80
2019-05-06T12:37:52.964Z,100642.33
2019-05-06T12:40:24.405Z,100639.73
2019-05-06T12:43:15.165Z,100636.73
2019-05-06T12:45:48.810Z,100637.96
2019-05-06T12:48:33.243Z,100636.23
2019-05-06T12:51:05.159Z,100636.09
2019-05-06T12:53:37.002Z,100629.90
2019-05-06T12:56:09.011Z,100629.72
2019-05-06T12:58:44.097Z,100625.51
2019-05-06T13:01:14.447Z,100622.52
2019-05-06T13:03:46.320Z,100623.43
2019-05-06T13:06:18.840Z,100617.80
2019-05-06T13:08:58.800Z,100619.80
2019-05-06T13:11:25.347Z,100617.63
2019-05-06T13:14:00.674Z,100616.13
2019-05-06T13:16:33.220Z,100607.92
2019-05-06T13:19:04.709Z,100611.52
2019-05-06T13:21:36.561Z,100605.96
2019-05-06T13:24:08.644Z,100611.77
2019-05-06T13:26:42.904Z,100600.52
2019-05-06T13:29:22.683Z,100602.70
2019-05-06T13:31:54.609Z,100601.68
2019-05-06T13:34:26.512Z,100600.19
2019-05-06T13:36:58.432Z,100600.84
2019-05-06T13:39:32.580Z,100596.95
2019-05-06T13:42:03.831Z,100590.66
2019-05-06T13:44:35.693Z,100589.00
2019-05-06T13:47:09.496Z,100602.86
2019-05-06T13:49:53.799Z,100603.67
2019-05-06T13:52:27.548Z,100593.38
2019-05-06T13:54:59.470Z,100590.05
2019-05-06T13:57:32.067Z,100597.47
2019-05-06T14:00:04.434Z,100599.37
2019-05-06T14:02:45.333Z,100593.66
2019-05-06T14:05:17.764Z,100601.91
2019-05-06T14:07:49.610Z,100593.30
2019-05-06T14:10:22.248Z,100586.77
2019-05-06T14:12:54.177Z,100590.73
2019-05-06T14:15:26.013Z,100584.02
2019-05-06T14:17:57.944Z,100585.56
2019-05-06T14:20:29.739Z,100585.02
2019-05-06T14:23:02.260Z,100584.89
2019-05-06T14:25:45.336Z,100581.95
2019-05-06T14:28:24.822Z,100575.56
2019-05-06T14:31:06.055Z,100566.50
2019-05-06T14:33:37.953Z,100572.92
2019-05-06T14:36:13.072Z,100567.09
2019-05-06T14:38:44.973Z,100571.53
2019-05-06T14:41:26.128Z,100575.98
2019-05-06T14:43:53.582Z,100580.55
2019-05-06T14:46:25.472Z,100578.73
2019-05-06T14:48:57.303Z,100583.64
2019-05-06T14:51:29.260Z,100584.23
2019-05-06T14:54:01.105Z,100583.08
2019-05-06T14:56:44.719Z,100582.22
2019-05-06T14:59:16.621Z,100579.91
2019-05-06T15:01:48.493Z,100581.49
2019-05-06T15:04:22.811Z,100582.48
2019-05-06T15:06:53.962Z,100578.25
2019-05-06T15:09:25.896Z,100579.16
2019-05-06T15:11:57.741Z,100580.85
2019-05-06T15:14:29.599Z,100584.14
2019-05-06T15:17:02.226Z,100579.73
2019-05-06T15:19:34.240Z,100573.76
2019-05-06T15:22:06.282Z,100573.92
2019-05-06T15:24:38.135Z,100571.78
2019-05-06T15:27:11.969Z,100576.98
2019-05-06T15:29:48.668Z,100565.67
2019-05-06T15:32:24.994Z,100578.92
2019-05-06T15:35:18.697Z,100571.98
2019-05-06T15:37:54.024Z,100570.88
2019-05-06T15:40:32.846Z,100577.27
2019-05-06T15:42:59.659Z,100568.19
2019-05-06T15:45:32.492Z,100576.68
2019-05-06T15:48:04.482Z,100579.34
2019-05-06T15:50:36.342Z,100577.08
2019-05-06T15:53:08.293Z,100585.08
2019-05-06T15:55:40.173Z,100586.56
2019-05-06T15:58:12.487Z,100578.50
2019-05-06T16:00:44.373Z,100579.56
2019-05-06T16:03:16.304Z,100576.72
2019-05-06T16:05:48.170Z,100578.37
2019-05-06T16:08:20.008Z,100578.09
2019-05-06T16:10:58.075Z,100579.16
2019-05-06T16:13:25.560Z,100583.22
2019-05-06T16:15:57.494Z,100585.68
2019-05-06T16:18:29.332Z,100585.16
2019-05-06T16:21:02.924Z,100586.19
2019-05-06T16:23:42.317Z,100572.63
2019-05-06T16:26:14.279Z,100580.70
2019-05-06T16:28:46.182Z,100577.20
2019-05-06T16:31:19.704Z,100576.13
2019-05-06T16:33:52.434Z,100578.93
2019-05-06T16:36:24.333Z,100583.33
2019-05-06T16:38:56.211Z,100577.83
2019-05-06T16:41:28.091Z,100572.04
2019-05-06T16:44:02.032Z,100571.94
2019-05-06T16:46:34.254Z,100568.16
2019-05-06T16:49:06.225Z,100578.69
2019-05-06T16:51:38.091Z,100574.16
2019-05-06T16:54:09.949Z,100568.90
2019-05-06T16:56:47.266Z,100563.30
2019-05-06T16:59:19.145Z,100558.28
2019-05-06T17:01:52.322Z,100561.74
2019-05-06T17:04:46.294Z,100556.77
2019-05-06T17:07:18.180Z,100550.58
2019-05-06T17:09:49.989Z,100550.91
2019-05-06T17:12:22.443Z,100543.50
2019-05-06T17:14:54.343Z,100538.24
2019-05-06T17:17:39.845Z,100541.13
2019-05-06T17:19:59.758Z,100539.73
2019-05-06T17:22:32.583Z,100538.63
2019-05-06T17:25:04.655Z,100535.61
2019-05-06T17:27:38.371Z,100543.23
2019-05-06T17:30:25.388Z,100546.03
2019-05-06T17:33:02.311Z,100547.64
2019-05-06T17:35:34.099Z,100548.29
2019-05-06T17:38:18.174Z,100543.25
2019-05-06T17:40:49.966Z,100542.51
2019-05-06T17:43:22.621Z,100540.83
2019-05-06T17:46:03.108Z,100536.61
2019-05-06T17:48:42.973Z,100536.39
2019-05-06T17:51:16.537Z,100536.33
2019-05-06T17:53:52.251Z,100534.70
2019-05-06T17:56:24.297Z,100530.84
2019-05-06T17:58:56.173Z,100534.88
2019-05-06T18:01:38.852Z,100522.19
2019-05-06T18:04:12.577Z,100528.52
2019-05-06T18:06:44.606Z,100530.06
2019-05-06T18:09:16.481Z,100527.35
2019-05-06T18:11:58.261Z,100531.23
2019-05-06T18:14:23.016Z,100533.27
2019-05-06T18:16:54.918Z,100531.39
2019-05-06T18:19:26.762Z,100531.83
2019-05-06T18:21:58.641Z,100540.64
2019-05-06T18:24:30.514Z,100536.48
2019-05-06T18:27:02.720Z,100534.44
2019-05-06T18:29:34.646Z,100526.50
2019-05-06T18:32:06.480Z,100528.25
2019-05-06T18:34:38.352Z,100537.20
2019-05-06T18:37:12.514Z,100533.72
2019-05-06T18:39:43.808Z,100536.41
2019-05-06T18:42:20.166Z,100537.06
2019-05-06T18:44:49.299Z,100540.98
2019-05-06T18:47:21.192Z,100537.88
2019-05-06T18:49:55.296Z,100537.13
2019-05-06T18:52:27.178Z,100539.84
2019-05-06T18:54:59.103Z,100536.06
2019-05-06T18:57:32.823Z,100539.05
2019-05-06T19:00:04.868Z,100535.23
2019-05-06T19:02:36.833Z,100541.63
2019-05-06T19:05:26.864Z,100544.70
2019-05-06T19:07:56.787Z,100547.22
2019-05-06T19:10:29.686Z,100546.54
2019-05-06T19:13:02.052Z,100557.08
2019-05-06T19:15:34.488Z,100561.63
2019-05-06T19:18:06.448Z,100562.24
2019-05-06T19:20:38.283Z,100555.31
2019-05-06T19:23:10.130Z,100555.43
2019-05-06T19:25:42.811Z,100562.08
2019-05-06T19:28:14.773Z,100565.38
2019-05-06T19:30:46.644Z,100564.87
2019-05-06T19:33:18.475Z,100561.80
2019-05-06T19:35:52.295Z,100563.61
2019-05-06T19:38:24.540Z,100563.05
2019-05-06T19:40:56.522Z,100570.67
2019-05-06T19:43:28.410Z,100576.62
2019-05-06T19:46:02.439Z,100573.66
2019-05-06T19:48:33.828Z,100576.79
2019-05-06T19:51:05.663Z,100579.32
2019-05-06T19:53:37.519Z,100579.90
2019-05-06T19:56:09.408Z,100586.41
2019-05-06T19:58:42.879Z,100587.25
2019-05-06T20:01:14.927Z,100587.19
2019-05-06T20:03:46.829Z,100577.56
2019-05-06T20:06:37.586Z,100582.92
2019-05-06T20:09:38.377Z,100588.06
2019-05-06T20:12:15.672Z,100588.50
2019-05-06T20:14:47.629Z,100592.36
2019-05-06T20:17:19.621Z,100585.09
2019-05-06T20:19:51.963Z,100589.08
2019-05-06T20:22:23.856Z,100589.19
2019-05-06T20:24:55.859Z,100580.01
2019-05-06T20:27:27.714Z,100582.40
2019-05-06T20:29:59.579Z,100590.34
2019-05-06T20:32:32.250Z,100587.83
2019-05-06T20:35:06.386Z,100579.03
2019-05-06T20:37:38.093Z,100573.28
2019-05-06T20:40:12.465Z,100570.66
2019-05-06T20:42:43.665Z,100577.06
2019-05-06T20:45:15.698Z,100580.44
2019-05-06T20:47:47.591Z,100579.86
2019-05-06T20:50:19.931Z,100582.98
2019-05-06T20:52:52.106Z,100585.24
2019-05-06T20:55:24.045Z,100581.36
2019-05-06T20:57:55.874Z,100586.80
2019-05-06T21:00:28.626Z,100577.73
2019-05-06T21:03:00.462Z,100586.00
2019-05-06T21:05:32.686Z,100590.41
2019-05-06T21:08:04.766Z,100596.23
2019-05-06T21:10:36.643Z,100591.05
2019-05-06T21:13:08.450Z,100607.18
2019-05-06T21:15:40.300Z,100600.98
2019-05-06T21:18:12.285Z,100594.98
2019-05-06T21:20:44.916Z,100595.93
2019-05-06T21:23:16.801Z,100592.44
2019-05-06T21:25:48.636Z,100598.55
2019-05-06T21:28:20.542Z,100597.19
2019-05-06T21:30:52.875Z,100593.17
2019-05-06T21:33:24.975Z,100597.55
2019-05-06T21:35:56.818Z,100595.38
2019-05-06T21:38:28.667Z,100594.06
2019-05-06T21:41:02.071Z,100588.38
2019-05-06T21:43:46.061Z,100592.19
2019-05-06T21:46:07.600Z,100589.94
2019-05-06T21:48:39.449Z,100588.63
2019-05-06T21:51:12.694Z,100588.23
2019-05-06T21:53:44.649Z,100591.67
2019-05-06T21:56:16.480Z,100591.61
2019-05-06T21:58:48.368Z,100586.34
2019-05-06T22:01:22.138Z,100589.27
2019-05-06T22:03:54.129Z,100588.46
2019-05-06T22:06:25.971Z,100591.90
2019-05-06T22:08:57.813Z,100591.03
2019-05-06T22:11:29.674Z,100593.20
2019-05-06T22:14:04.603Z,100594.46
2019-05-06T22:16:36.457Z,100587.03
2019-05-06T22:19:08.291Z,100589.66
2019-05-06T22:21:48.959Z,100580.89
2019-05-06T22:24:22.345Z,100582.20
2019-05-06T22:26:54.270Z,100583.52
2019-05-06T22:29:26.136Z,100583.02
2019-05-06T22:31:58.765Z,100580.84
2019-05-06T22:34:32.820Z,100581.64
2019-05-06T22:37:04.189Z,100579.08
2019-05-06T22:39:36.065Z,100576.40
2019-05-06T22:42:07.901Z,100580.78
2019-05-06T22:44:39.747Z,100579.45
2019-05-06T22:47:12.147Z,100576.01
2019-05-06T22:49:44.132Z,100579.02
2019-05-06T22:52:15.970Z,100579.02
2019-05-06T22:54:47.856Z,100580.34
2019-05-06T22:57:19.707Z,100576.40
2019-05-06T22:59:52.327Z,100576.01
2019-05-06T23:02:36.780Z,100572.97
2019-05-06T23:05:09.710Z,100572.97
2019-05-06T23:07:42.317Z,100575.20
2019-05-06T23:10:14.311Z,100576.16
2019-05-06T23:12:46.111Z,100580.22
2019-05-06T23:15:18.017Z,100583.30
2019-05-06T23:17:49.814Z,100584.66
2019-05-06T23:20:24.227Z,100586.00
2019-05-06T23:22:55.102Z,100584.30
2019-05-06T23:25:26.945Z,100584.30
2019-05-06T23:27:58.807Z,100580.86
2019-05-06T23:30:33.251Z,100582.56
2019-05-06T23:33:04.428Z,100582.17
2019-05-06T23:35:36.308Z,100585.63
2019-05-06T23:39:01.968Z,100586.50
2019-05-06T23:42:27.080Z,100583.80
2019-05-06T23:45:54.244Z,100586.11
2019-05-06T23:49:19.044Z,100590.57
2019-05-06T23:52:43.779Z,100586.50
2019-05-06T23:56:08.458Z,100587.11
2019-05-06T23:58:40.300Z,100581.50
